createdAt,value
2018-08-22T00:02:16.577Z,21.42
2018-08-22T00:04:46.740Z,21.42
2018-08-22T00:07:17.010Z,21.36
2018-08-22T00:09:48.181Z,21.41
2018-08-22T00:12:19.414Z,21.34
2018-08-22T00:14:49.276Z,21.30
2018-08-22T00:17:19.875Z,21.17
2018-08-22T00:19:51.507Z,21.21
2018-08-22T00:22:23.768Z,21.26
2018-08-22T00:24:54.071Z,21.27
2018-08-22T00:27:25.172Z,21.30
2018-08-22T00:29:56.771Z,21.36
2018-08-22T00:32:28.104Z,21.32
2018-08-22T00:34:58.309Z,21.33
2018-08-22T00:37:29.510Z,21.41
2018-08-22T00:39:59.471Z,21.32
2018-08-22T00:42:29.538Z,21.32
2018-08-22T00:45:00.300Z,21.28
2018-08-22T00:47:30.420Z,21.21
2018-08-22T00:50:01.235Z,21.20
2018-08-22T00:52:33.534Z,21.28
2018-08-22T00:55:03.515Z,21.26
2018-08-22T00:57:33.600Z,21.21
2018-08-22T01:00:03.806Z,21.20
2018-08-22T01:02:34.097Z,21.24
2018-08-22T01:05:04.773Z,21.19
2018-08-22T01:07:36.135Z,21.24
2018-08-22T01:10:06.885Z,21.22
2018-08-22T01:12:37.837Z,21.19
2018-08-22T01:15:08.040Z,21.11
2018-08-22T01:17:39.050Z,21.09
2018-08-22T01:20:10.087Z,21.16
2018-08-22T01:22:40.179Z,21.14
2018-08-22T01:25:10.420Z,21.14
2018-08-22T01:27:45.794Z,21.17
2018-08-22T01:30:15.936Z,21.08
2018-08-22T01:32:47.049Z,21.00
2018-08-22T01:35:18.789Z,21.01
2018-08-22T01:37:49.922Z,20.97
2018-08-22T01:40:20.286Z,20.89
2018-08-22T01:42:51.671Z,20.91
2018-08-22T01:45:21.813Z,20.85
2018-08-22T01:47:52.558Z,20.83
2018-08-22T01:50:22.637Z,20.91
2018-08-22T01:52:52.911Z,20.91
2018-08-22T01:55:23.491Z,20.90
2018-08-22T01:57:54.518Z,20.89
2018-08-22T02:00:24.861Z,20.90
2018-08-22T02:02:56.991Z,20.94
2018-08-22T02:05:27.067Z,20.97
2018-08-22T02:07:58.046Z,20.93
2018-08-22T02:10:28.145Z,20.89
2018-08-22T02:12:58.700Z,20.88
2018-08-22T02:15:28.915Z,20.90
2018-08-22T02:17:58.997Z,20.91
2018-08-22T02:20:29.514Z,20.88
2018-08-22T02:23:00.577Z,20.93
2018-08-22T02:25:30.727Z,20.87
2018-08-22T02:28:00.991Z,20.88
2018-08-22T02:30:31.096Z,20.93
2018-08-22T02:33:01.345Z,20.81
2018-08-22T02:35:31.524Z,20.87
2018-08-22T02:38:03.753Z,20.96
2018-08-22T02:40:34.135Z,21.13
2018-08-22T02:43:04.706Z,21.22
2018-08-22T02:45:34.888Z,21.21
2018-08-22T02:48:05.014Z,21.21
2018-08-22T02:50:35.130Z,21.19
2018-08-22T02:53:06.782Z,21.18
2018-08-22T02:55:36.857Z,20.99
2018-08-22T02:58:06.962Z,20.98
2018-08-22T03:00:37.559Z,20.88
2018-08-22T03:03:07.710Z,20.87
2018-08-22T03:05:38.252Z,20.88
2018-08-22T03:08:09.302Z,20.66
2018-08-22T03:10:40.048Z,20.54
2018-08-22T03:13:11.174Z,20.53
2018-08-22T03:15:41.214Z,20.69
2018-08-22T03:18:13.274Z,20.87
2018-08-22T03:20:43.451Z,21.03
2018-08-22T03:23:14.676Z,21.18
2018-08-22T03:25:44.892Z,21.33
2018-08-22T03:28:16.039Z,21.42
2018-08-22T03:30:46.540Z,21.53
2018-08-22T03:33:18.017Z,21.65
2018-08-22T03:35:48.398Z,21.76
2018-08-22T03:38:18.398Z,21.93
2018-08-22T03:40:48.491Z,22.06
2018-08-22T03:43:20.447Z,22.32
2018-08-22T03:45:50.811Z,22.52
2018-08-22T03:48:21.340Z,22.88
2018-08-22T03:50:51.654Z,23.22
2018-08-22T03:53:21.712Z,23.58
2018-08-22T03:55:53.673Z,24.02
2018-08-22T03:58:25.577Z,24.30
2018-08-22T04:00:55.582Z,24.56
2018-08-22T04:03:26.641Z,24.80
2018-08-22T04:05:57.089Z,25.15
2018-08-22T04:08:27.291Z,25.58
2018-08-22T04:10:57.623Z,26.03
2018-08-22T04:13:27.803Z,26.41
2018-08-22T04:15:59.397Z,26.75
2018-08-22T04:18:29.412Z,27.02
2018-08-22T04:21:00.743Z,27.39
2018-08-22T04:23:32.539Z,27.62
2018-08-22T04:26:02.839Z,27.61
2018-08-22T04:28:34.366Z,26.87
2018-08-22T04:31:04.461Z,26.82
2018-08-22T04:33:36.455Z,27.12
2018-08-22T04:36:06.784Z,28.35
2018-08-22T04:38:36.978Z,28.34
2018-08-22T04:41:07.549Z,28.98
2018-08-22T04:43:39.563Z,29.57
2018-08-22T04:46:10.488Z,30.42
2018-08-22T04:48:40.822Z,31.02
2018-08-22T04:51:11.138Z,31.57
2018-08-22T04:53:42.688Z,32.38
2018-08-22T04:56:13.248Z,32.33
2018-08-22T04:58:45.068Z,32.44
2018-08-22T05:01:16.874Z,31.51
2018-08-22T05:03:47.682Z,31.38
2018-08-22T05:06:18.504Z,31.76
2018-08-22T05:08:50.180Z,31.85
2018-08-22T05:11:20.759Z,31.66
2018-08-22T05:13:51.280Z,32.10
2018-08-22T05:16:21.572Z,31.85
2018-08-22T05:18:51.893Z,31.00
2018-08-22T05:21:24.656Z,30.10
2018-08-22T05:23:54.898Z,30.18
2018-08-22T05:26:26.806Z,30.09
2018-08-22T05:29:00.210Z,28.74
2018-08-22T05:31:31.060Z,28.49
2018-08-22T05:34:01.982Z,28.89
2018-08-22T05:36:32.685Z,28.83
2018-08-22T05:39:03.227Z,29.45
2018-08-22T05:41:33.873Z,31.36
2018-08-22T05:44:05.862Z,32.04
2018-08-22T05:46:36.349Z,32.30
2018-08-22T05:49:07.753Z,32.78
2018-08-22T05:51:37.804Z,33.18
2018-08-22T05:54:08.522Z,33.18
2018-08-22T05:56:39.471Z,31.28
2018-08-22T05:59:09.785Z,33.91
2018-08-22T06:01:40.421Z,36.52
2018-08-22T06:04:11.488Z,36.53
2018-08-22T06:06:43.737Z,37.81
2018-08-22T06:09:14.861Z,35.90
2018-08-22T06:11:45.417Z,33.87
2018-08-22T06:14:15.568Z,33.89
2018-08-22T06:16:45.707Z,35.64
2018-08-22T06:19:16.938Z,37.29
2018-08-22T06:21:48.608Z,39.29
2018-08-22T06:24:19.137Z,40.79
2018-08-22T06:26:49.267Z,41.67
2018-08-22T06:29:20.559Z,42.06
2018-08-22T06:34:45.581Z,42.48
2018-08-22T06:37:18.099Z,43.70
2018-08-22T06:39:49.123Z,43.79
2018-08-22T06:42:18.798Z,45.23
2018-08-22T06:44:48.656Z,44.31
2018-08-22T06:47:19.091Z,45.15
2018-08-22T06:49:59.043Z,46.16
2018-08-22T06:52:29.615Z,46.49
2018-08-22T06:55:00.411Z,44.22
2018-08-22T06:57:30.185Z,44.83
2018-08-22T07:00:00.505Z,44.36
2018-08-22T07:02:31.029Z,45.47
2018-08-22T07:05:01.986Z,45.14
2018-08-22T07:07:32.959Z,45.94
2018-08-22T07:10:08.186Z,46.13
2018-08-22T07:12:40.218Z,45.85
2018-08-22T07:15:15.573Z,45.07
2018-08-22T07:17:46.116Z,45.32
2018-08-22T07:20:17.422Z,45.62
2018-08-22T07:22:47.554Z,45.91
2018-08-22T07:25:20.508Z,45.46
2018-08-22T07:27:51.521Z,43.11
2018-08-22T07:30:23.418Z,42.00
2018-08-22T07:32:53.541Z,40.00
2018-08-22T07:35:27.546Z,38.56
2018-08-22T07:37:58.271Z,36.72
2018-08-22T07:40:28.425Z,35.67
2018-08-22T07:42:58.836Z,34.25
2018-08-22T07:45:30.670Z,32.88
2018-08-22T07:48:01.141Z,32.52
2018-08-22T07:50:31.897Z,32.16
2018-08-22T07:53:07.094Z,31.88
2018-08-22T07:55:42.334Z,31.77
2018-08-22T07:58:13.970Z,31.20
2018-08-22T08:00:47.337Z,30.63
2018-08-22T08:03:17.907Z,30.61
2018-08-22T08:05:48.289Z,30.43
2018-08-22T08:08:20.435Z,30.44
2018-08-22T08:10:50.725Z,30.20
2018-08-22T08:13:29.686Z,29.72
2018-08-22T08:16:01.415Z,29.81
2018-08-22T08:18:34.386Z,29.76
2018-08-22T08:21:05.509Z,29.94
2018-08-22T08:23:35.268Z,29.87
2018-08-22T08:26:05.573Z,29.79
2018-08-22T08:28:37.140Z,29.51
2018-08-22T08:31:08.360Z,29.67
2018-08-22T08:33:39.634Z,29.65
2018-08-22T08:36:11.169Z,29.58
2018-08-22T08:38:41.313Z,29.79
2018-08-22T08:41:11.769Z,29.85
2018-08-22T08:43:42.026Z,29.82
2018-08-22T08:46:12.358Z,29.77
2018-08-22T08:48:43.145Z,29.61
2018-08-22T08:51:13.304Z,29.62
2018-08-22T08:53:43.203Z,29.91
2018-08-22T08:56:13.057Z,30.20
2018-08-22T08:58:43.538Z,30.30
2018-08-22T09:01:13.489Z,30.39
2018-08-22T09:03:44.036Z,30.29
2018-08-22T09:06:16.105Z,30.31
2018-08-22T09:08:46.006Z,30.33
2018-08-22T09:11:15.849Z,30.34
2018-08-22T09:13:53.603Z,30.26
2018-08-22T09:16:24.211Z,30.35
2018-08-22T09:18:54.253Z,30.30
2018-08-22T09:21:24.642Z,30.17
2018-08-22T09:23:54.487Z,30.00
2018-08-22T09:26:24.472Z,30.01
2018-08-22T09:28:54.373Z,30.01
2018-08-22T09:31:24.255Z,29.87
2018-08-22T09:33:56.304Z,29.96
2018-08-22T09:36:26.243Z,29.71
2018-08-22T09:38:56.130Z,29.74
2018-08-22T09:41:25.999Z,29.79
2018-08-22T09:43:55.850Z,29.72
2018-08-22T09:46:26.100Z,29.76
2018-08-22T09:48:56.257Z,29.68
2018-08-22T09:51:26.633Z,29.63
2018-08-22T09:53:56.785Z,29.43
2018-08-22T09:56:26.939Z,29.58
2018-08-22T09:58:56.840Z,29.66
2018-08-22T10:01:31.618Z,29.45
2018-08-22T10:04:02.551Z,29.30
2018-08-22T10:06:38.716Z,29.37
2018-08-22T10:09:10.758Z,29.26
2018-08-22T10:11:40.589Z,28.98
2018-08-22T10:14:11.270Z,28.83
2018-08-22T10:16:41.413Z,28.56
2018-08-22T10:19:12.026Z,28.41
2018-08-22T10:21:42.565Z,28.51
2018-08-22T10:24:12.373Z,28.37
2018-08-22T10:26:42.370Z,28.28
2018-08-22T10:29:14.389Z,28.18
2018-08-22T10:31:44.683Z,28.24
2018-08-22T10:34:14.427Z,27.96
2018-08-22T10:36:44.274Z,28.22
2018-08-22T10:39:16.412Z,28.32
2018-08-22T10:41:46.397Z,28.34
2018-08-22T10:44:16.172Z,28.10
2018-08-22T10:46:45.994Z,28.16
2018-08-22T10:49:17.299Z,28.24
2018-08-22T10:51:47.108Z,28.33
2018-08-22T10:54:16.872Z,28.23
2018-08-22T10:56:46.847Z,28.38
2018-08-22T10:59:18.121Z,28.36
2018-08-22T11:01:48.705Z,28.13
2018-08-22T11:04:20.622Z,28.07
2018-08-22T11:06:50.497Z,28.10
2018-08-22T11:09:22.251Z,28.30
2018-08-22T11:11:54.067Z,28.11
2018-08-22T11:14:24.566Z,28.18
2018-08-22T11:16:54.333Z,28.33
2018-08-22T11:19:25.772Z,28.49
2018-08-22T11:22:06.046Z,28.55
2018-08-22T11:24:46.736Z,28.63
2018-08-22T11:27:30.456Z,28.49
2018-08-22T11:30:12.297Z,28.45
2018-08-22T11:32:53.190Z,28.55
2018-08-22T11:35:21.219Z,28.48
2018-08-22T11:37:52.052Z,28.30
2018-08-22T11:40:21.790Z,28.06
2018-08-22T11:42:51.826Z,28.17
2018-08-22T11:45:21.694Z,28.45
2018-08-22T11:47:51.501Z,28.55
2018-08-22T11:50:23.465Z,28.33
2018-08-22T11:52:53.379Z,28.11
2018-08-22T11:55:23.234Z,28.12
2018-08-22T11:57:52.938Z,28.21
2018-08-22T12:00:22.839Z,28.34
2018-08-22T12:02:52.563Z,28.50
2018-08-22T12:05:22.365Z,28.36
2018-08-22T12:07:52.160Z,28.27
2018-08-22T12:10:24.874Z,28.31
2018-08-22T12:12:55.136Z,28.27
2018-08-22T12:15:24.895Z,28.29
2018-08-22T12:17:55.021Z,28.37
2018-08-22T12:20:24.897Z,28.41
2018-08-22T12:22:54.732Z,28.44
2018-08-22T12:25:25.038Z,28.38
2018-08-22T12:27:54.958Z,27.95
2018-08-22T12:30:24.817Z,27.91
2018-08-22T12:32:54.705Z,27.88
2018-08-22T12:35:24.595Z,28.03
2018-08-22T12:37:54.950Z,28.27
2018-08-22T12:40:32.469Z,28.24
2018-08-22T12:43:02.264Z,28.01
2018-08-22T12:45:32.215Z,28.14
2018-08-22T12:48:02.053Z,28.05
2018-08-22T12:50:31.964Z,28.16
2018-08-22T12:53:02.769Z,28.09
2018-08-22T12:55:34.557Z,28.16
2018-08-22T12:58:04.282Z,28.21
2018-08-22T13:00:34.518Z,27.97
2018-08-22T13:03:04.228Z,27.98
2018-08-22T13:05:36.223Z,27.91
2018-08-22T13:08:10.346Z,27.95
2018-08-22T13:10:40.173Z,27.87
2018-08-22T13:13:10.061Z,27.92
2018-08-22T13:15:39.876Z,27.81
2018-08-22T13:18:10.267Z,27.86
2018-08-22T13:20:40.200Z,28.06
2018-08-22T13:23:10.005Z,27.97
2018-08-22T13:25:39.962Z,27.94
2018-08-22T13:28:10.657Z,27.91
2018-08-22T13:30:40.491Z,27.70
2018-08-22T13:33:10.247Z,27.68
2018-08-22T13:35:40.016Z,27.90
2018-08-22T13:38:09.845Z,27.63
2018-08-22T13:40:40.953Z,27.65
2018-08-22T13:43:10.798Z,27.57
2018-08-22T13:45:41.438Z,27.36
2018-08-22T13:48:13.499Z,27.40
2018-08-22T13:50:44.202Z,27.41
2018-08-22T13:53:14.108Z,27.40
2018-08-22T13:55:44.681Z,27.34
2018-08-22T13:58:14.536Z,27.39
2018-08-22T14:00:44.467Z,27.38
2018-08-22T14:03:14.423Z,27.47
2018-08-22T14:05:44.118Z,27.51
2018-08-22T14:08:13.948Z,27.63
2018-08-22T14:10:44.677Z,27.45
2018-08-22T14:13:15.357Z,27.25
2018-08-22T14:15:45.143Z,27.26
2018-08-22T14:18:16.118Z,27.30
2018-08-22T14:20:50.060Z,27.37
2018-08-22T14:23:20.440Z,27.38
2018-08-22T14:25:52.417Z,27.22
2018-08-22T14:28:25.754Z,27.31
2018-08-22T14:30:56.754Z,27.39
2018-08-22T14:33:27.091Z,27.38
2018-08-22T14:35:58.942Z,27.37
2018-08-22T14:40:00.339Z,27.56
2018-08-22T14:42:31.893Z,27.33
2018-08-22T14:45:01.790Z,27.29
2018-08-22T14:47:32.924Z,27.24
2018-08-22T14:50:02.681Z,27.09
2018-08-22T14:52:32.596Z,27.02
2018-08-22T14:55:02.331Z,26.95
2018-08-22T14:57:32.068Z,26.95
2018-08-22T15:00:02.381Z,27.16
2018-08-22T15:02:38.847Z,27.14
2018-08-22T15:05:08.841Z,27.04
2018-08-22T15:07:39.442Z,26.89
2018-08-22T15:10:09.944Z,26.91
2018-08-22T15:12:40.808Z,26.72
2018-08-22T15:15:10.907Z,26.77
2018-08-22T15:17:40.707Z,26.85
2018-08-22T15:20:11.960Z,26.83
2018-08-22T15:22:41.875Z,26.70
2018-08-22T15:25:11.798Z,26.72
2018-08-22T15:27:41.607Z,26.74
2018-08-22T15:30:12.023Z,26.71
2018-08-22T15:32:41.775Z,26.75
2018-08-22T15:35:11.575Z,26.69
2018-08-22T15:37:47.258Z,26.71
2018-08-22T15:40:19.550Z,26.71
2018-08-22T15:42:50.093Z,26.66
2018-08-22T15:45:20.933Z,26.66
2018-08-22T15:47:51.947Z,26.59
2018-08-22T15:50:22.390Z,26.55
2018-08-22T15:52:53.121Z,26.39
2018-08-22T15:55:24.232Z,26.30
2018-08-22T15:58:02.247Z,26.10
2018-08-22T16:00:49.757Z,26.16
2018-08-22T16:03:20.140Z,26.10
2018-08-22T16:05:50.889Z,26.23
2018-08-22T16:08:26.462Z,26.31
2018-08-22T16:10:56.744Z,26.13
2018-08-22T16:13:31.339Z,26.06
2018-08-22T16:16:04.164Z,25.97
2018-08-22T16:18:36.051Z,25.92
2018-08-22T16:21:08.517Z,25.95
2018-08-22T16:23:38.398Z,25.78
2018-08-22T16:26:08.339Z,25.71
2018-08-22T16:28:51.272Z,25.71
2018-08-22T16:31:25.390Z,25.79
2018-08-22T16:33:55.465Z,25.73
2018-08-22T16:36:32.321Z,25.56
2018-08-22T16:39:02.560Z,25.45
2018-08-22T16:41:32.298Z,25.53
2018-08-22T16:44:02.437Z,25.36
2018-08-22T16:46:32.539Z,25.24
2018-08-22T16:49:03.190Z,25.42
2018-08-22T16:51:33.114Z,25.33
2018-08-22T16:54:09.431Z,25.13
2018-08-22T16:56:40.460Z,25.00
2018-08-22T16:59:15.210Z,24.90
2018-08-22T17:01:49.475Z,24.69
2018-08-22T17:04:27.375Z,24.60
2018-08-22T17:07:04.100Z,24.56
2018-08-22T17:09:33.943Z,24.62
2018-08-22T17:12:09.265Z,24.27
2018-08-22T17:14:39.438Z,24.22
2018-08-22T17:17:09.248Z,24.05
2018-08-22T17:19:39.847Z,23.95
2018-08-22T17:22:09.741Z,23.90
2018-08-22T17:24:41.146Z,23.89
2018-08-22T17:27:12.536Z,23.82
2018-08-22T17:29:42.444Z,23.82
2018-08-22T17:32:12.486Z,23.72
2018-08-22T17:34:42.465Z,23.74
2018-08-22T17:37:12.748Z,23.62
2018-08-22T17:39:43.112Z,23.57
2018-08-22T17:42:13.019Z,23.55
2018-08-22T17:44:42.880Z,23.54
2018-08-22T17:47:12.857Z,23.53
2018-08-22T17:49:43.683Z,23.55
2018-08-22T17:52:13.994Z,23.56
2018-08-22T17:54:44.814Z,23.47
2018-08-22T17:57:21.385Z,23.46
2018-08-22T17:59:51.679Z,23.41
2018-08-22T18:02:21.886Z,23.50
2018-08-22T18:05:04.846Z,23.51
2018-08-22T18:07:34.627Z,23.55
2018-08-22T18:10:05.646Z,23.55
2018-08-22T18:12:35.924Z,23.60
2018-08-22T18:15:06.552Z,23.58
2018-08-22T18:17:37.737Z,23.58
2018-08-22T18:20:08.612Z,23.64
2018-08-22T18:22:39.655Z,23.61
2018-08-22T18:25:10.119Z,23.59
2018-08-22T18:27:43.035Z,23.64
2018-08-22T18:30:14.064Z,23.58
2018-08-22T18:32:47.881Z,23.54
2018-08-22T18:35:18.648Z,23.47
2018-08-22T18:37:50.295Z,23.37
2018-08-22T18:40:27.887Z,23.50
2018-08-22T18:43:01.507Z,23.50
2018-08-22T18:45:31.957Z,23.50
2018-08-22T18:48:07.814Z,23.55
2018-08-22T18:50:40.719Z,23.48
2018-08-22T18:53:12.150Z,23.54
2018-08-22T18:55:42.925Z,23.50
2018-08-22T18:58:13.393Z,23.50
2018-08-22T19:00:43.945Z,23.48
2018-08-22T19:03:14.909Z,23.47
2018-08-22T19:05:45.726Z,23.46
2018-08-22T19:08:19.275Z,23.40
2018-08-22T19:10:51.767Z,23.46
2018-08-22T19:13:26.421Z,23.48
2018-08-22T19:16:00.606Z,23.40
2018-08-22T19:18:31.203Z,23.38
2018-08-22T19:21:03.328Z,23.41
2018-08-22T19:23:33.612Z,23.43
2018-08-22T19:26:05.228Z,23.40
2018-08-22T19:28:49.808Z,23.48
2018-08-22T19:31:20.370Z,23.39
2018-08-22T19:33:51.074Z,23.41
2018-08-22T19:36:22.278Z,23.43
2018-08-22T19:38:52.526Z,23.39
2018-08-22T19:41:33.328Z,23.44
2018-08-22T19:44:07.384Z,23.46
2018-08-22T19:46:39.380Z,23.45
2018-08-22T19:49:11.406Z,23.41
2018-08-22T19:51:42.861Z,23.39
2018-08-22T19:54:14.395Z,23.36
2018-08-22T19:56:47.412Z,23.28
2018-08-22T19:59:17.716Z,23.40
2018-08-22T20:01:48.505Z,23.45
2018-08-22T20:04:20.247Z,23.46
2018-08-22T20:06:50.691Z,23.48
2018-08-22T20:09:21.419Z,23.42
2018-08-22T20:11:52.972Z,23.38
2018-08-22T20:14:23.216Z,23.34
2018-08-22T20:16:53.803Z,23.38
2018-08-22T20:19:24.627Z,23.39
2018-08-22T20:21:54.966Z,23.31
2018-08-22T20:24:24.952Z,23.36
2018-08-22T20:27:02.026Z,23.25
2018-08-22T20:29:31.830Z,23.28
2018-08-22T20:32:02.716Z,23.30
2018-08-22T20:34:34.174Z,23.21
2018-08-22T20:37:04.411Z,23.15
2018-08-22T20:39:35.896Z,23.16
2018-08-22T20:42:11.504Z,23.13
2018-08-22T20:44:42.473Z,23.09
2018-08-22T20:47:12.430Z,23.11
2018-08-22T20:49:42.722Z,23.08
2018-08-22T20:52:15.006Z,23.12
2018-08-22T20:54:49.647Z,22.98
2018-08-22T20:57:20.093Z,23.02
2018-08-22T20:59:51.041Z,23.02
2018-08-22T21:02:22.755Z,22.98
2018-08-22T21:04:53.714Z,23.10
2018-08-22T21:07:27.396Z,23.02
2018-08-22T21:09:57.321Z,23.03
2018-08-22T21:12:27.735Z,22.99
2018-08-22T21:14:58.952Z,23.08
2018-08-22T21:17:28.860Z,23.06
2018-08-22T21:19:59.260Z,23.05
2018-08-22T21:22:30.871Z,23.12
2018-08-22T21:25:01.726Z,23.12
2018-08-22T21:27:32.428Z,23.16
2018-08-22T21:30:03.792Z,23.14
2018-08-22T21:32:34.323Z,23.14
2018-08-22T21:35:16.037Z,23.14
2018-08-22T21:37:46.009Z,23.19
2018-08-22T21:40:16.634Z,23.23
2018-08-22T21:42:47.801Z,23.19
2018-08-22T21:45:17.491Z,23.28
2018-08-22T21:47:51.674Z,23.35
2018-08-22T21:50:33.627Z,23.33
2018-08-22T21:53:14.571Z,23.35
2018-08-22T21:55:55.140Z,23.37
2018-08-22T21:58:31.074Z,23.38
2018-08-22T22:01:11.278Z,23.46
2018-08-22T22:03:54.871Z,23.45
2018-08-22T22:06:28.689Z,23.45
2018-08-22T22:08:59.942Z,23.47
2018-08-22T22:11:31.092Z,23.46
2018-08-22T22:14:08.924Z,23.50
2018-08-22T22:16:38.795Z,23.49
2018-08-22T22:19:09.524Z,23.57
2018-08-22T22:21:39.273Z,23.49
2018-08-22T22:24:09.035Z,23.45
2018-08-22T22:26:39.699Z,23.42
2018-08-22T22:29:10.324Z,23.39
2018-08-22T22:31:40.204Z,23.46
2018-08-22T22:34:12.005Z,23.36
2018-08-22T22:36:41.841Z,23.34
2018-08-22T22:39:26.274Z,23.30
2018-08-22T22:41:56.123Z,23.35
2018-08-22T22:44:26.082Z,23.34
2018-08-22T22:46:55.969Z,23.34
2018-08-22T22:49:26.268Z,23.37
2018-08-22T22:51:56.399Z,23.37
2018-08-22T22:54:43.473Z,23.39
2018-08-22T22:57:13.236Z,23.38
2018-08-22T22:59:43.113Z,23.36
2018-08-22T23:02:12.957Z,23.35
2018-08-22T23:04:52.135Z,23.35
2018-08-22T23:07:30.828Z,23.29
2018-08-22T23:10:02.711Z,23.28
2018-08-22T23:12:40.635Z,23.26
2018-08-22T23:15:18.798Z,23.31
2018-08-22T23:17:51.502Z,23.31
2018-08-22T23:20:44.949Z,23.35
2018-08-22T23:23:30.796Z,23.33
2018-08-22T23:26:12.896Z,23.28
2018-08-22T23:28:44.245Z,23.26
2018-08-22T23:31:21.226Z,23.28
2018-08-22T23:33:51.681Z,23.27
2018-08-22T23:36:22.860Z,23.25
2018-08-22T23:38:53.292Z,23.32
2018-08-22T23:41:23.450Z,23.26
2018-08-22T23:43:53.751Z,23.25
2018-08-22T23:46:24.117Z,23.21
2018-08-22T23:48:59.059Z,23.22
2018-08-22T23:51:29.210Z,23.20
2018-08-22T23:54:00.465Z,23.22
2018-08-22T23:56:33.025Z,23.15
2018-08-22T23:59:03.581Z,23.23
